createdAt,value
2022-08-03T00:01:49.074Z,7.07
2022-08-03T00:04:15.603Z,5.10
2022-08-03T00:06:42.361Z,5.40
2022-08-03T00:09:09.077Z,4.68
2022-08-03T00:11:36.602Z,6.68
2022-08-03T00:14:05.025Z,6.75
2022-08-03T00:16:31.701Z,3.90
2022-08-03T00:18:58.393Z,5.63
2022-08-03T00:21:28.633Z,6.45
2022-08-03T00:23:55.122Z,8.85
2022-08-03T00:26:21.936Z,3.45
2022-08-03T00:28:49.365Z,4.28
2022-08-03T00:31:16.505Z,5.60
2022-08-03T00:33:58.281Z,4.78
2022-08-03T00:36:27.000Z,3.83
2022-08-03T00:38:53.524Z,4.78
2022-08-03T00:41:19.979Z,2.95
2022-08-03T00:43:47.485Z,4.47
2022-08-03T00:46:19.016Z,5.82
2022-08-03T00:48:47.278Z,4.70
2022-08-03T00:51:13.983Z,5.15
2022-08-03T00:53:41.000Z,2.78
2022-08-03T00:56:07.507Z,3.47
2022-08-03T00:58:34.029Z,6.85
2022-08-03T01:01:00.580Z,6.53
2022-08-03T01:03:27.239Z,4.25
2022-08-03T01:06:20.769Z,5.72
2022-08-03T01:09:23.174Z,6.63
2022-08-03T01:12:12.923Z,6.28
2022-08-03T01:14:54.009Z,7.07
2022-08-03T01:17:40.113Z,4.90
2022-08-03T01:20:10.652Z,5.72
2022-08-03T01:22:58.842Z,6.10
2022-08-03T01:25:32.934Z,4.05
2022-08-03T01:28:37.600Z,6.50
2022-08-03T01:31:08.504Z,3.55
2022-08-03T01:33:43.986Z,5.95
2022-08-03T01:36:16.222Z,4.17
2022-08-03T01:38:47.653Z,3.08
2022-08-03T01:41:20.121Z,7.28
2022-08-03T01:44:27.698Z,3.55
2022-08-03T01:46:38.402Z,5.32
2022-08-03T01:49:09.646Z,7.93
2022-08-03T01:52:03.498Z,6.78
2022-08-03T01:54:26.116Z,5.80
2022-08-03T01:56:54.638Z,4.63
2022-08-03T01:59:22.952Z,3.35
2022-08-03T02:02:25.228Z,8.43
2022-08-03T02:04:39.402Z,4.15
2022-08-03T02:07:08.071Z,7.95
2022-08-03T02:09:38.283Z,7.57
2022-08-03T02:12:08.935Z,8.27
2022-08-03T02:14:36.840Z,6.50
2022-08-03T02:17:04.559Z,4.93
2022-08-03T02:19:35.760Z,4.57
2022-08-03T02:22:02.559Z,5.10
2022-08-03T02:24:30.720Z,5.30
2022-08-03T02:27:00.434Z,11.10
2022-08-03T02:29:39.964Z,4.45
2022-08-03T02:32:11.589Z,7.30
2022-08-03T02:34:40.031Z,4.72
2022-08-03T02:37:08.463Z,6.00
2022-08-03T02:39:36.708Z,6.80
2022-08-03T02:42:05.467Z,6.07
2022-08-03T02:44:35.687Z,6.07
2022-08-03T02:47:07.466Z,8.25
2022-08-03T02:49:50.571Z,6.70
2022-08-03T02:52:21.691Z,6.80
2022-08-03T02:54:51.343Z,5.60
2022-08-03T02:57:20.037Z,7.20
2022-08-03T02:59:47.674Z,8.40
2022-08-03T03:02:16.947Z,8.60
2022-08-03T03:05:52.447Z,11.93
2022-08-03T03:07:34.665Z,8.35
2022-08-03T03:10:17.877Z,6.70
2022-08-03T03:12:45.417Z,7.68
2022-08-03T03:15:12.324Z,7.10
2022-08-03T03:17:39.288Z,9.30
2022-08-03T03:20:07.562Z,4.90
2022-08-03T03:22:34.790Z,9.07
2022-08-03T03:25:02.384Z,7.65
2022-08-03T03:27:29.841Z,14.35
2022-08-03T03:29:57.902Z,5.20
2022-08-03T03:32:26.255Z,7.05
2022-08-03T03:34:54.143Z,8.90
2022-08-03T03:37:20.680Z,7.13
2022-08-03T03:39:47.248Z,11.85
2022-08-03T03:42:14.196Z,8.83
2022-08-03T03:44:41.082Z,7.88
2022-08-03T03:47:07.694Z,8.50
2022-08-03T03:49:34.679Z,10.82
2022-08-03T03:52:01.215Z,6.50
2022-08-03T03:54:39.556Z,10.23
2022-08-03T03:57:06.095Z,6.15
2022-08-03T03:59:32.633Z,6.65
2022-08-03T04:02:02.885Z,7.38
2022-08-03T04:04:50.284Z,7.18
2022-08-03T04:07:36.512Z,7.53
2022-08-03T04:10:29.306Z,10.35
2022-08-03T04:12:59.152Z,8.20
2022-08-03T04:15:28.102Z,8.55
2022-08-03T04:17:58.881Z,9.07
2022-08-03T04:20:30.440Z,9.33
2022-08-03T04:23:02.431Z,10.90
2022-08-03T04:25:32.950Z,8.20
2022-08-03T04:28:08.076Z,11.18
2022-08-03T04:30:50.859Z,6.80
2022-08-03T04:33:17.985Z,9.63
2022-08-03T04:36:01.956Z,9.88
2022-08-03T04:38:32.911Z,10.00
2022-08-03T04:41:01.057Z,11.75
2022-08-03T04:43:28.701Z,9.88
2022-08-03T04:45:56.875Z,12.63
2022-08-03T04:48:24.035Z,10.25
2022-08-03T04:50:50.917Z,11.75
2022-08-03T04:53:18.183Z,8.93
2022-08-03T04:55:46.292Z,11.38
2022-08-03T04:58:12.814Z,10.80
2022-08-03T05:00:39.398Z,13.32
2022-08-03T05:03:19.406Z,15.95
2022-08-03T05:05:51.442Z,14.43
2022-08-03T05:08:20.613Z,12.52
2022-08-03T05:10:54.546Z,11.73
2022-08-03T05:13:22.176Z,19.60
2022-08-03T05:15:49.346Z,13.02
2022-08-03T05:18:15.825Z,8.40
2022-08-03T05:20:42.308Z,12.95
2022-08-03T05:23:08.746Z,12.53
2022-08-03T05:25:35.278Z,11.95
2022-08-03T05:28:01.745Z,8.18
2022-08-03T05:30:33.272Z,10.00
2022-08-03T05:33:01.144Z,14.85
2022-08-03T05:35:55.819Z,9.10
2022-08-03T05:38:15.452Z,14.70
2022-08-03T05:40:57.236Z,9.02
2022-08-03T05:43:37.266Z,14.80
2022-08-03T05:46:12.374Z,7.43
2022-08-03T05:48:39.853Z,9.67
2022-08-03T05:51:11.278Z,8.05
2022-08-03T05:53:38.560Z,13.48
2022-08-03T05:56:14.530Z,12.05
2022-08-03T05:58:44.200Z,11.65
2022-08-03T06:01:10.803Z,10.87
2022-08-03T06:03:37.351Z,10.55
2022-08-03T06:06:03.941Z,10.75
2022-08-03T06:08:30.477Z,14.73
2022-08-03T06:10:57.060Z,10.10
2022-08-03T06:13:23.497Z,10.43
2022-08-03T06:15:50.097Z,9.52
2022-08-03T06:18:16.549Z,17.00
2022-08-03T06:20:43.049Z,18.20
2022-08-03T06:23:15.995Z,9.00
2022-08-03T06:25:43.040Z,17.50
2022-08-03T06:28:19.020Z,10.25
2022-08-03T06:30:50.870Z,15.45
2022-08-03T06:33:17.350Z,9.43
2022-08-03T06:35:44.691Z,15.20
2022-08-03T06:38:12.976Z,11.63
2022-08-03T06:40:42.562Z,12.02
2022-08-03T06:43:12.758Z,11.50
2022-08-03T06:45:39.696Z,11.75
2022-08-03T06:48:08.057Z,10.27
2022-08-03T06:50:36.153Z,21.03
2022-08-03T06:53:04.059Z,11.05
2022-08-03T06:55:31.678Z,17.02
2022-08-03T06:58:03.282Z,16.55
2022-08-03T07:00:31.270Z,11.52
2022-08-03T07:02:58.479Z,19.77
2022-08-03T07:05:25.399Z,12.15
2022-08-03T07:07:55.682Z,9.25
2022-08-03T07:10:22.327Z,9.85
2022-08-03T07:12:55.774Z,12.18
2022-08-03T07:15:55.212Z,11.30
2022-08-03T07:18:10.921Z,14.35
2022-08-03T07:20:37.539Z,16.20
2022-08-03T07:23:04.028Z,12.30
2022-08-03T07:25:30.503Z,10.57
2022-08-03T07:27:56.980Z,11.33
2022-08-03T07:30:24.758Z,15.55
2022-08-03T07:32:51.252Z,12.45
2022-08-03T07:35:24.855Z,12.75
2022-08-03T07:37:54.497Z,17.95
2022-08-03T07:40:22.047Z,7.13
2022-08-03T07:42:48.631Z,13.23
2022-08-03T07:45:23.271Z,7.65
2022-08-03T07:47:53.114Z,12.57
2022-08-03T07:50:21.044Z,12.20
2022-08-03T07:52:47.935Z,12.37
2022-08-03T07:55:14.597Z,13.27
2022-08-03T07:57:41.134Z,9.98
2022-08-03T08:00:15.050Z,10.45
2022-08-03T08:02:42.301Z,15.18
2022-08-03T08:05:10.938Z,8.83
2022-08-03T08:07:40.473Z,13.02
2022-08-03T08:10:10.026Z,12.77
2022-08-03T08:12:37.646Z,10.27
2022-08-03T08:15:05.157Z,10.40
2022-08-03T08:17:31.693Z,11.37
2022-08-03T08:19:58.248Z,15.70
2022-08-03T08:22:30.399Z,16.35
2022-08-03T08:24:59.448Z,10.43
2022-08-03T08:27:26.131Z,16.15
2022-08-03T08:29:54.504Z,11.37
2022-08-03T08:32:21.866Z,10.00
2022-08-03T08:34:48.316Z,15.18
2022-08-03T08:37:15.020Z,20.67
2022-08-03T08:39:41.537Z,11.52
2022-08-03T08:42:08.031Z,15.03
2022-08-03T08:44:34.487Z,8.43
2022-08-03T08:47:03.363Z,13.43
2022-08-03T08:49:32.715Z,10.65
2022-08-03T08:52:01.610Z,9.13
2022-08-03T08:54:32.470Z,10.57
2022-08-03T08:57:03.157Z,12.02
2022-08-03T08:59:48.826Z,14.82
2022-08-03T09:02:16.444Z,16.33
2022-08-03T09:04:45.554Z,19.75
2022-08-03T09:07:20.147Z,13.50
2022-08-03T09:10:11.027Z,17.80
2022-08-03T09:12:49.192Z,13.15
2022-08-03T09:15:22.061Z,13.90
2022-08-03T09:17:51.313Z,10.00
2022-08-03T09:20:19.954Z,19.00
2022-08-03T09:22:57.747Z,13.32
2022-08-03T09:25:35.664Z,11.23
2022-08-03T09:28:05.164Z,13.13
2022-08-03T09:30:34.508Z,16.83
2022-08-03T09:33:03.603Z,14.10
2022-08-03T09:35:53.214Z,8.75
2022-08-03T09:38:18.118Z,19.27
2022-08-03T09:40:46.221Z,14.27
2022-08-03T09:43:13.716Z,13.57
2022-08-03T09:45:41.059Z,12.53
2022-08-03T09:48:20.595Z,10.00
2022-08-03T09:50:57.135Z,12.52
2022-08-03T09:53:58.969Z,12.70
2022-08-03T09:56:39.078Z,15.18
2022-08-03T09:59:05.719Z,8.93
2022-08-03T10:01:37.224Z,12.80
2022-08-03T10:04:05.167Z,13.70
2022-08-03T10:06:32.541Z,14.52
2022-08-03T10:09:25.142Z,10.45
2022-08-03T10:11:52.106Z,11.87
2022-08-03T10:14:19.481Z,16.17
2022-08-03T10:16:47.423Z,15.45
2022-08-03T10:19:15.147Z,10.45
2022-08-03T10:21:51.394Z,16.08
2022-08-03T10:24:24.287Z,12.97
2022-08-03T10:26:51.691Z,9.80
2022-08-03T10:29:22.498Z,10.18
2022-08-03T10:31:57.796Z,12.05
2022-08-03T10:34:27.519Z,8.63
2022-08-03T10:36:58.827Z,10.63
2022-08-03T10:39:29.682Z,17.50
2022-08-03T10:41:59.873Z,11.23
2022-08-03T10:44:37.599Z,10.38
2022-08-03T10:47:04.985Z,12.43
2022-08-03T10:49:34.616Z,14.80
2022-08-03T10:52:13.015Z,10.57
2022-08-03T10:55:03.570Z,9.23
2022-08-03T10:57:58.259Z,20.05
2022-08-03T11:00:26.706Z,10.40
2022-08-03T11:03:08.879Z,11.67
2022-08-03T11:05:43.910Z,9.65
2022-08-03T11:08:31.938Z,9.32
2022-08-03T11:11:17.858Z,9.20
2022-08-03T11:14:04.521Z,15.00
2022-08-03T11:16:37.006Z,12.43
2022-08-03T11:19:09.071Z,12.02
2022-08-03T11:21:53.737Z,10.25
2022-08-03T11:24:42.455Z,11.95
2022-08-03T11:27:15.342Z,13.00
2022-08-03T11:30:17.523Z,9.30
2022-08-03T11:32:48.201Z,6.32
2022-08-03T11:35:30.049Z,9.25
2022-08-03T11:38:04.555Z,6.40
2022-08-03T11:40:44.566Z,12.27
2022-08-03T11:43:30.672Z,14.77
2022-08-03T11:46:05.275Z,6.10
2022-08-03T11:48:37.140Z,9.70
2022-08-03T11:51:06.062Z,6.72
2022-08-03T11:53:33.254Z,13.35
2022-08-03T11:56:12.916Z,12.93
2022-08-03T11:59:10.994Z,10.35
2022-08-03T12:01:34.428Z,8.80
2022-08-03T12:04:05.412Z,10.27
2022-08-03T12:06:51.974Z,11.55
2022-08-03T12:09:18.553Z,7.50
2022-08-03T12:11:50.938Z,13.02
2022-08-03T12:14:50.338Z,10.93
2022-08-03T12:17:14.707Z,9.52
2022-08-03T12:19:44.594Z,9.85
2022-08-03T12:22:11.105Z,5.83
2022-08-03T12:24:42.485Z,10.43
2022-08-03T12:27:09.247Z,10.57
2022-08-03T12:29:36.277Z,9.93
2022-08-03T12:32:02.796Z,6.43
2022-08-03T12:34:47.457Z,4.80
2022-08-03T12:37:19.064Z,5.13
2022-08-03T12:40:00.658Z,6.30
2022-08-03T12:42:35.453Z,10.13
2022-08-03T12:45:20.785Z,7.43
2022-08-03T12:48:01.661Z,5.80
2022-08-03T12:50:32.180Z,5.68
2022-08-03T12:53:05.169Z,7.90
2022-08-03T12:55:40.186Z,6.07
2022-08-03T12:58:35.947Z,6.82
2022-08-03T13:01:10.168Z,6.77
2022-08-03T13:03:42.926Z,8.63
2022-08-03T13:06:18.252Z,4.53
2022-08-03T13:08:46.004Z,6.40
2022-08-03T13:11:22.752Z,5.57
2022-08-03T13:13:50.411Z,5.93
2022-08-03T13:16:19.357Z,2.63
2022-08-03T13:18:48.908Z,3.58
2022-08-03T13:21:16.512Z,4.60
2022-08-03T13:23:43.764Z,5.10
2022-08-03T13:26:11.910Z,6.67
2022-08-03T13:28:41.498Z,6.38
2022-08-03T13:31:08.130Z,5.00
2022-08-03T13:33:34.792Z,7.90
2022-08-03T13:36:01.562Z,4.50
2022-08-03T13:38:28.481Z,5.50
2022-08-03T13:40:55.086Z,5.50
2022-08-03T13:43:22.591Z,4.18
2022-08-03T13:45:52.511Z,6.07
2022-08-03T13:48:35.772Z,5.13
2022-08-03T13:51:11.531Z,6.13
2022-08-03T13:53:48.252Z,8.60
2022-08-03T13:56:14.750Z,4.13
2022-08-03T13:58:41.267Z,3.45
2022-08-03T14:01:07.881Z,7.97
2022-08-03T14:03:34.419Z,4.80
2022-08-03T14:06:00.976Z,9.73
2022-08-03T14:08:27.499Z,4.47
2022-08-03T14:10:54.048Z,2.97
2022-08-03T14:13:20.607Z,13.65
2022-08-03T14:15:49.862Z,3.67
2022-08-03T14:18:29.253Z,13.68
2022-08-03T14:21:05.914Z,5.95
2022-08-03T14:23:34.130Z,5.47
2022-08-03T14:26:01.104Z,2.65
2022-08-03T14:28:27.615Z,3.70
2022-08-03T14:30:56.006Z,7.88
2022-08-03T14:33:23.238Z,5.60
2022-08-03T14:35:51.006Z,5.07
2022-08-03T14:38:17.907Z,7.20
2022-08-03T14:40:44.717Z,3.40
2022-08-03T14:43:11.395Z,9.02
2022-08-03T14:45:39.105Z,3.15
2022-08-03T14:50:33.159Z,8.77
2022-08-03T14:50:56.657Z,4.15
2022-08-03T14:53:23.489Z,4.23
2022-08-03T14:55:51.971Z,5.13
2022-08-03T14:58:21.277Z,5.13
2022-08-03T15:00:49.646Z,4.10
2022-08-03T15:03:20.361Z,5.13
2022-08-03T15:05:47.217Z,6.07
2022-08-03T15:08:13.790Z,12.00
2022-08-03T15:10:44.383Z,2.35
2022-08-03T15:13:13.312Z,5.18
2022-08-03T15:15:40.878Z,4.95
2022-08-03T15:18:07.599Z,3.63
2022-08-03T15:20:44.529Z,6.72
2022-08-03T15:23:13.914Z,6.97
2022-08-03T15:26:28.152Z,4.20
2022-08-03T15:28:27.049Z,4.97
2022-08-03T15:30:53.742Z,6.87
2022-08-03T15:33:20.365Z,2.75
2022-08-03T15:35:47.661Z,5.95
2022-08-03T15:38:14.541Z,3.65
2022-08-03T15:40:41.119Z,7.22
2022-08-03T15:43:07.959Z,5.77
2022-08-03T15:45:35.382Z,6.13
2022-08-03T15:48:04.730Z,5.30
2022-08-03T15:50:31.222Z,4.70
2022-08-03T15:52:57.707Z,4.78
2022-08-03T15:55:24.293Z,3.77
2022-08-03T15:59:10.241Z,7.40
2022-08-03T16:00:37.486Z,3.88
2022-08-03T16:03:04.095Z,3.08
2022-08-03T16:05:30.820Z,4.97
2022-08-03T16:08:03.877Z,5.70
2022-08-03T16:10:32.147Z,4.72
2022-08-03T16:13:00.011Z,4.60
2022-08-03T16:15:27.292Z,6.63
2022-08-03T16:17:53.858Z,7.13
2022-08-03T16:20:31.152Z,5.30
2022-08-03T16:23:10.870Z,7.65
2022-08-03T16:25:43.085Z,5.30
2022-08-03T16:28:14.586Z,3.85
2022-08-03T16:30:44.181Z,5.00
2022-08-03T16:33:16.563Z,4.37
2022-08-03T16:35:43.726Z,4.78
2022-08-03T16:38:13.078Z,2.58
2022-08-03T16:40:41.951Z,4.03
2022-08-03T16:43:17.966Z,5.47
2022-08-03T16:45:49.091Z,8.33
2022-08-03T16:48:16.514Z,3.70
2022-08-03T16:50:44.175Z,6.60
2022-08-03T16:53:17.041Z,4.88
2022-08-03T16:55:52.116Z,3.72
2022-08-03T16:58:41.144Z,7.47
2022-08-03T17:01:22.334Z,4.85
2022-08-03T17:04:03.675Z,3.67
2022-08-03T17:06:35.306Z,6.15
2022-08-03T17:09:09.099Z,3.30
2022-08-03T17:11:38.064Z,3.50
2022-08-03T17:14:09.416Z,2.72
2022-08-03T17:16:38.482Z,7.60
2022-08-03T17:19:07.198Z,5.00
2022-08-03T17:21:37.618Z,3.90
2022-08-03T17:24:12.569Z,4.50
2022-08-03T17:26:45.765Z,6.00
2022-08-03T17:29:25.162Z,7.80
2022-08-03T17:31:52.526Z,4.07
2022-08-03T17:34:20.972Z,8.90
2022-08-03T17:37:27.094Z,3.67
2022-08-03T17:39:58.186Z,9.60
2022-08-03T17:42:31.044Z,4.20
2022-08-03T17:45:02.141Z,5.05
2022-08-03T17:47:42.858Z,4.78
2022-08-03T17:50:23.994Z,6.23
2022-08-03T17:52:59.616Z,4.50
2022-08-03T17:55:54.915Z,7.10
2022-08-03T17:58:24.093Z,3.65
2022-08-03T18:01:58.335Z,5.53
2022-08-03T18:04:11.002Z,6.33
2022-08-03T18:06:55.828Z,5.47
2022-08-03T18:10:06.317Z,6.45
2022-08-03T18:12:18.514Z,5.13
2022-08-03T18:14:57.177Z,6.57
2022-08-03T18:17:58.326Z,1.77
2022-08-03T18:20:31.282Z,4.28
2022-08-03T18:23:04.826Z,3.60
2022-08-03T18:25:44.948Z,6.22
2022-08-03T18:28:19.392Z,5.30
2022-08-03T18:30:53.965Z,4.57
2022-08-03T18:34:19.660Z,5.00
2022-08-03T18:36:10.923Z,5.80
2022-08-03T18:38:41.715Z,4.28
2022-08-03T18:41:19.468Z,6.22
2022-08-03T18:44:08.104Z,3.50
2022-08-03T18:46:41.170Z,6.63
2022-08-03T18:49:15.947Z,2.55
2022-08-03T18:51:46.529Z,4.93
2022-08-03T18:57:30.225Z,5.23
2022-08-03T19:00:16.199Z,2.67
2022-08-03T19:02:58.635Z,5.70
2022-08-03T19:05:56.486Z,4.40
2022-08-03T19:08:17.915Z,2.03
2022-08-03T19:10:57.865Z,2.07
2022-08-03T19:13:36.064Z,2.20
2022-08-03T19:16:08.550Z,7.97
2022-08-03T19:18:37.470Z,5.97
2022-08-03T19:21:12.860Z,2.35
2022-08-03T19:23:46.066Z,5.53
2022-08-03T19:26:30.161Z,6.47
2022-08-03T19:28:57.337Z,4.38
2022-08-03T19:31:31.088Z,4.90
2022-08-03T19:34:17.435Z,7.13
2022-08-03T19:36:45.642Z,4.17
2022-08-03T19:39:14.173Z,3.25
2022-08-03T19:41:44.404Z,3.92
2022-08-03T19:44:29.548Z,3.08
2022-08-03T19:47:09.742Z,4.47
2022-08-03T19:50:04.607Z,17.60
2022-08-03T19:52:31.601Z,5.72
2022-08-03T19:55:02.367Z,4.18
2022-08-03T19:57:32.623Z,2.67
2022-08-03T20:00:03.941Z,6.97
2022-08-03T20:02:32.292Z,8.20
2022-08-03T20:04:59.933Z,8.38
2022-08-03T20:07:33.495Z,6.70
2022-08-03T20:10:02.169Z,7.72
2022-08-03T20:12:29.670Z,14.18
2022-08-03T20:14:59.854Z,9.40
2022-08-03T20:17:55.074Z,6.85
2022-08-03T20:20:19.954Z,4.88
2022-08-03T20:22:52.609Z,6.90
2022-08-03T20:25:38.006Z,5.20
2022-08-03T20:28:14.099Z,5.57
2022-08-03T20:30:43.929Z,8.27
2022-08-03T20:33:10.952Z,4.60
2022-08-03T20:35:37.502Z,5.18
2022-08-03T20:38:06.763Z,3.30
2022-08-03T20:40:33.514Z,4.47
2022-08-03T20:43:00.042Z,7.45
2022-08-03T20:45:59.414Z,4.05
2022-08-03T20:48:15.974Z,3.35
2022-08-03T20:50:43.458Z,6.00
2022-08-03T20:53:12.000Z,3.57
2022-08-03T20:55:53.767Z,7.63
2022-08-03T20:58:25.684Z,2.63
2022-08-03T21:00:54.351Z,3.42
2022-08-03T21:03:20.874Z,6.00
2022-08-03T21:05:51.684Z,3.63
2022-08-03T21:08:25.294Z,8.45
2022-08-03T21:10:53.948Z,2.78
2022-08-03T21:13:00.958Z,4.88
2022-08-03T21:13:37.992Z,6.05
2022-08-03T21:16:14.707Z,4.18
2022-08-03T21:18:52.146Z,4.83
2022-08-03T21:21:21.358Z,4.63
2022-08-03T21:23:55.371Z,2.85
2022-08-03T21:26:24.793Z,3.35
2022-08-03T21:28:55.466Z,2.92
2022-08-03T21:31:24.916Z,2.20
2022-08-03T21:33:54.400Z,6.35
2022-08-03T21:36:20.971Z,5.13
2022-08-03T21:38:56.100Z,2.83
2022-08-03T21:41:24.767Z,2.45
2022-08-03T21:43:51.348Z,4.80
2022-08-03T21:46:19.729Z,2.60
2022-08-03T21:48:52.311Z,4.97
2022-08-03T21:51:23.506Z,4.75
2022-08-03T21:54:03.257Z,2.85
2022-08-03T21:56:54.176Z,4.90
2022-08-03T21:59:23.573Z,4.72
2022-08-03T22:01:55.204Z,4.10
2022-08-03T22:04:55.038Z,4.40
2022-08-03T22:07:12.175Z,3.13
2022-08-03T22:09:38.777Z,3.30
2022-08-03T22:12:05.832Z,6.40
2022-08-03T22:14:33.226Z,4.93
2022-08-03T22:17:06.346Z,4.00
2022-08-03T22:19:33.770Z,4.93
2022-08-03T22:22:04.585Z,3.20
2022-08-03T22:24:32.661Z,6.72
2022-08-03T22:27:21.302Z,5.22
2022-08-03T22:29:50.238Z,7.57
2022-08-03T22:32:17.019Z,4.78
2022-08-03T22:34:47.279Z,9.33
2022-08-03T22:37:16.703Z,5.95
2022-08-03T22:39:43.980Z,7.88
2022-08-03T22:42:11.577Z,6.50
2022-08-03T22:44:38.387Z,5.18
2022-08-03T22:47:05.957Z,6.53
2022-08-03T22:49:33.555Z,4.03
2022-08-03T22:52:01.447Z,8.65
2022-08-03T22:54:28.042Z,3.47
2022-08-03T22:56:54.750Z,3.53
2022-08-03T22:59:40.225Z,3.13
2022-08-03T23:02:16.843Z,5.68
2022-08-03T23:04:59.990Z,3.10
2022-08-03T23:07:35.047Z,6.00
2022-08-03T23:10:06.489Z,3.97
2022-08-03T23:12:35.411Z,4.70
2022-08-03T23:15:06.144Z,3.80
2022-08-03T23:17:33.230Z,3.35
2022-08-03T23:20:06.826Z,4.20
2022-08-03T23:22:34.486Z,3.40
2022-08-03T23:25:03.943Z,4.73
2022-08-03T23:27:32.545Z,3.40
2022-08-03T23:30:00.474Z,3.35
2022-08-03T23:32:29.362Z,5.90
2022-08-03T23:35:19.630Z,4.60
2022-08-03T23:38:10.750Z,4.00
2022-08-03T23:40:36.601Z,4.68
2022-08-03T23:43:03.568Z,7.68
2022-08-03T23:45:34.652Z,6.70
2022-08-03T23:48:01.108Z,7.07
2022-08-03T23:50:34.657Z,6.10
2022-08-03T23:53:11.513Z,4.93
2022-08-03T23:55:41.216Z,3.60
2022-08-03T23:58:23.232Z,5.05
